createdAt,value
2023-02-14T00:01:20.668Z,4.40
2023-02-14T00:03:47.834Z,4.40
2023-02-14T00:06:15.830Z,4.40
2023-02-14T00:08:45.177Z,4.40
2023-02-14T00:11:13.911Z,4.50
2023-02-14T00:14:00.969Z,4.50
2023-02-14T00:16:28.078Z,4.50
2023-02-14T00:19:03.829Z,4.50
2023-02-14T00:21:32.563Z,4.50
2023-02-14T00:23:59.567Z,4.50
2023-02-14T00:26:26.622Z,4.50
2023-02-14T00:28:54.252Z,4.50
2023-02-14T00:31:21.657Z,4.50
2023-02-14T00:33:48.868Z,4.50
2023-02-14T00:36:16.659Z,4.50
2023-02-14T00:38:43.733Z,4.50
2023-02-14T00:41:10.753Z,4.50
2023-02-14T00:43:37.812Z,4.50
2023-02-14T00:46:05.015Z,4.50
2023-02-14T00:48:32.144Z,4.50
2023-02-14T00:50:59.432Z,4.50
2023-02-14T00:53:26.820Z,4.50
2023-02-14T00:55:53.897Z,4.50
2023-02-14T00:58:20.908Z,4.50
2023-02-14T01:00:48.042Z,4.50
2023-02-14T01:03:15.102Z,4.50
2023-02-14T01:05:42.166Z,4.50
2023-02-14T01:08:09.245Z,4.50
2023-02-14T01:10:39.736Z,4.60
2023-02-14T01:13:07.119Z,4.60
2023-02-14T01:15:38.795Z,4.50
2023-02-14T01:18:05.930Z,4.50
2023-02-14T01:20:33.042Z,4.60
2023-02-14T01:23:00.302Z,4.50
2023-02-14T01:25:28.148Z,4.50
2023-02-14T01:27:55.255Z,4.50
2023-02-14T01:30:22.597Z,4.50
2023-02-14T01:32:49.691Z,4.60
2023-02-14T01:35:16.836Z,4.60
2023-02-14T01:37:43.921Z,4.50
2023-02-14T01:40:13.811Z,4.50
2023-02-14T01:42:40.848Z,4.50
2023-02-14T01:45:22.593Z,4.50
2023-02-14T01:47:54.780Z,4.50
2023-02-14T01:50:27.330Z,4.50
2023-02-14T01:53:03.158Z,4.50
2023-02-14T01:55:34.128Z,4.50
2023-02-14T01:58:10.694Z,4.50
2023-02-14T02:00:59.006Z,4.50
2023-02-14T02:03:36.714Z,4.50
2023-02-14T02:06:17.661Z,4.50
2023-02-14T02:08:59.307Z,4.50
2023-02-14T02:11:27.702Z,4.40
2023-02-14T02:13:55.711Z,4.40
2023-02-14T02:17:08.320Z,4.50
2023-02-14T02:19:44.149Z,4.50
2023-02-14T02:22:35.701Z,4.50
2023-02-14T02:25:13.073Z,4.50
2023-02-14T02:27:53.147Z,4.40
2023-02-14T02:30:39.563Z,4.40
2023-02-14T02:33:25.271Z,4.40
2023-02-14T02:36:01.135Z,4.40
2023-02-14T02:39:06.665Z,4.40
2023-02-14T02:42:11.286Z,4.40
2023-02-14T02:45:02.917Z,4.40
2023-02-14T02:47:43.080Z,4.40
2023-02-14T02:50:47.556Z,4.40
2023-02-14T02:53:21.385Z,4.40
2023-02-14T02:56:17.053Z,4.40
2023-02-14T02:59:21.081Z,4.40
2023-02-14T03:02:09.741Z,4.40
2023-02-14T03:04:53.626Z,4.40
2023-02-14T03:07:36.800Z,4.30
2023-02-14T03:10:09.021Z,4.30
2023-02-14T03:12:37.717Z,4.30
2023-02-14T03:15:42.849Z,4.30
2023-02-14T03:18:30.071Z,4.20
2023-02-14T03:21:38.058Z,4.20
2023-02-14T03:24:34.854Z,4.20
2023-02-14T03:27:18.731Z,4.10
2023-02-14T03:29:48.413Z,4.10
2023-02-14T03:32:18.393Z,4.00
2023-02-14T03:35:18.396Z,4.00
2023-02-14T03:37:55.616Z,3.90
2023-02-14T03:40:26.298Z,3.90
2023-02-14T03:43:15.937Z,3.80
2023-02-14T03:46:24.733Z,3.70
2023-02-14T03:48:55.388Z,3.70
2023-02-14T03:51:24.835Z,3.70
2023-02-14T03:53:57.264Z,3.60
2023-02-14T03:56:35.222Z,3.60
2023-02-14T03:59:14.967Z,3.60
2023-02-14T04:01:56.684Z,3.60
2023-02-14T04:04:27.837Z,3.60
2023-02-14T04:06:55.239Z,3.60
2023-02-14T04:09:22.294Z,3.60
2023-02-14T04:11:50.737Z,3.60
2023-02-14T04:14:18.399Z,3.60
2023-02-14T04:17:03.653Z,3.60
2023-02-14T04:19:30.702Z,3.60
2023-02-14T04:21:57.770Z,3.70
2023-02-14T04:24:24.790Z,3.70
2023-02-14T04:27:06.221Z,3.70
2023-02-14T04:29:33.183Z,3.70
2023-02-14T04:32:00.265Z,3.80
2023-02-14T04:34:27.369Z,3.80
2023-02-14T04:36:54.969Z,3.80
2023-02-14T04:39:22.041Z,3.80
2023-02-14T04:41:49.009Z,3.80
2023-02-14T04:44:16.054Z,3.70
2023-02-14T04:46:43.172Z,3.70
2023-02-14T04:49:10.329Z,3.70
2023-02-14T04:51:37.404Z,3.80
2023-02-14T04:54:04.390Z,3.80
2023-02-14T04:56:31.423Z,3.80
2023-02-14T04:58:58.484Z,3.80
2023-02-14T05:01:25.572Z,3.80
2023-02-14T05:03:52.508Z,3.80
2023-02-14T05:06:19.607Z,3.80
2023-02-14T05:08:46.656Z,3.80
2023-02-14T05:11:13.902Z,3.80
2023-02-14T05:13:40.949Z,3.80
2023-02-14T05:16:07.999Z,3.80
2023-02-14T05:18:35.040Z,3.80
2023-02-14T05:21:02.322Z,3.80
2023-02-14T05:23:29.555Z,3.80
2023-02-14T05:25:56.565Z,3.80
2023-02-14T05:28:23.586Z,3.80
2023-02-14T05:30:52.264Z,3.80
2023-02-14T05:33:19.542Z,3.80
2023-02-14T05:35:46.641Z,3.80
2023-02-14T05:38:14.052Z,3.80
2023-02-14T05:40:43.107Z,3.80
2023-02-14T05:43:10.322Z,3.70
2023-02-14T05:45:38.034Z,3.70
2023-02-14T05:48:06.303Z,3.70
2023-02-14T05:50:33.457Z,3.70
2023-02-14T05:53:01.303Z,3.70
2023-02-14T05:55:28.459Z,3.70
2023-02-14T05:57:55.504Z,3.70
2023-02-14T06:00:24.633Z,3.70
2023-02-14T06:02:51.843Z,3.70
2023-02-14T06:05:20.541Z,3.70
2023-02-14T06:07:51.272Z,3.70
2023-02-14T06:10:20.017Z,3.70
2023-02-14T06:12:49.321Z,3.70
2023-02-14T06:15:17.288Z,3.70
2023-02-14T06:17:44.396Z,3.70
2023-02-14T06:20:12.209Z,3.60
2023-02-14T06:22:39.476Z,3.60
2023-02-14T06:25:07.540Z,3.70
2023-02-14T06:27:34.598Z,3.70
2023-02-14T06:30:01.709Z,3.80
2023-02-14T06:32:28.810Z,3.80
2023-02-14T06:34:55.879Z,3.90
2023-02-14T06:37:23.032Z,3.90
2023-02-14T06:39:50.080Z,3.90
2023-02-14T06:42:17.135Z,4.00
2023-02-14T06:44:44.178Z,4.10
2023-02-14T06:47:11.403Z,4.40
2023-02-14T06:49:39.748Z,4.70
2023-02-14T06:52:07.013Z,4.90
2023-02-14T06:54:34.054Z,5.00
2023-02-14T06:57:01.106Z,5.00
2023-02-14T06:59:28.164Z,5.00
2023-02-14T07:01:55.286Z,5.00
2023-02-14T07:04:22.342Z,4.80
2023-02-14T07:06:49.528Z,4.80
2023-02-14T07:09:18.411Z,4.70
2023-02-14T07:11:46.335Z,4.70
2023-02-14T07:14:13.831Z,4.60
2023-02-14T07:16:40.960Z,4.60
2023-02-14T07:19:07.997Z,4.60
2023-02-14T07:21:35.139Z,4.60
2023-02-14T07:24:02.217Z,4.60
2023-02-14T07:26:29.295Z,4.60
2023-02-14T07:28:56.318Z,4.60
2023-02-14T07:31:23.837Z,4.60
2023-02-14T07:33:52.236Z,4.70
2023-02-14T07:36:19.269Z,4.70
2023-02-14T07:38:46.392Z,4.70
2023-02-14T07:41:13.361Z,4.70
2023-02-14T07:43:40.416Z,4.70
2023-02-14T07:46:07.565Z,4.70
2023-02-14T07:48:34.814Z,4.70
2023-02-14T07:51:03.587Z,4.70
2023-02-14T07:53:30.953Z,4.70
2023-02-14T07:55:58.021Z,4.80
2023-02-14T07:58:25.085Z,4.80
2023-02-14T08:00:52.752Z,4.80
2023-02-14T08:03:19.799Z,4.90
2023-02-14T08:05:57.557Z,5.00
2023-02-14T08:08:29.774Z,5.10
2023-02-14T08:10:57.346Z,5.20
2023-02-14T08:13:24.563Z,5.30
2023-02-14T08:16:06.933Z,5.40
2023-02-14T08:18:38.178Z,5.50
2023-02-14T08:21:07.311Z,5.60
2023-02-14T08:23:35.748Z,5.60
2023-02-14T08:26:03.859Z,5.70
2023-02-14T08:28:33.548Z,5.70
2023-02-14T08:31:01.973Z,5.70
2023-02-14T08:33:29.241Z,5.90
2023-02-14T08:35:56.329Z,6.00
2023-02-14T08:38:23.404Z,6.00
2023-02-14T08:40:50.602Z,6.00
2023-02-14T08:43:17.741Z,6.10
2023-02-14T08:45:44.964Z,6.10
2023-02-14T08:48:13.315Z,6.10
2023-02-14T08:50:41.253Z,6.10
2023-02-14T08:53:13.463Z,6.20
2023-02-14T08:55:40.671Z,6.30
2023-02-14T08:58:08.776Z,6.30
2023-02-14T09:00:36.381Z,6.30
2023-02-14T09:03:03.593Z,6.30
2023-02-14T09:05:30.815Z,6.30
2023-02-14T09:07:58.048Z,6.30
2023-02-14T09:10:26.938Z,6.30
2023-02-14T09:12:54.058Z,6.30
2023-02-14T09:15:21.131Z,6.40
2023-02-14T09:17:48.259Z,6.40
2023-02-14T09:20:16.423Z,6.30
2023-02-14T09:22:43.841Z,6.30
2023-02-14T09:25:11.800Z,6.30
2023-02-14T09:27:39.357Z,6.30
2023-02-14T09:30:09.606Z,6.30
2023-02-14T09:32:36.640Z,6.30
2023-02-14T09:35:22.568Z,6.30
2023-02-14T09:37:49.635Z,6.30
2023-02-14T09:40:19.579Z,6.20
2023-02-14T09:43:15.134Z,6.20
2023-02-14T09:45:47.956Z,6.30
2023-02-14T09:48:33.877Z,6.30
2023-02-14T09:51:06.686Z,6.30
2023-02-14T09:54:00.768Z,6.30
2023-02-14T09:56:51.250Z,6.30
2023-02-14T09:59:35.190Z,6.30
2023-02-14T10:02:42.314Z,6.30
2023-02-14T10:05:29.315Z,6.30
2023-02-14T10:08:22.307Z,6.30
2023-02-14T10:10:59.697Z,6.40
2023-02-14T10:13:39.560Z,6.40
2023-02-14T10:16:32.657Z,6.50
2023-02-14T10:19:05.620Z,6.40
2023-02-14T10:21:49.092Z,6.50
2023-02-14T10:24:25.296Z,6.50
2023-02-14T10:26:58.133Z,6.60
2023-02-14T10:29:25.334Z,6.70
2023-02-14T10:31:59.347Z,6.70
2023-02-14T10:34:48.933Z,6.70
2023-02-14T10:37:25.034Z,6.80
2023-02-14T10:40:00.778Z,6.80
2023-02-14T10:42:42.562Z,6.80
2023-02-14T10:45:29.280Z,6.80
2023-02-14T10:48:16.852Z,6.90
2023-02-14T10:51:07.212Z,7.00
2023-02-14T10:53:51.461Z,7.00
2023-02-14T10:56:28.334Z,7.00
2023-02-14T10:58:57.937Z,7.00
2023-02-14T11:01:25.424Z,7.10
2023-02-14T11:03:58.723Z,7.10
2023-02-14T11:06:25.853Z,7.10
2023-02-14T11:08:53.279Z,7.10
2023-02-14T11:11:35.346Z,7.20
2023-02-14T11:14:30.247Z,7.20
2023-02-14T11:16:59.553Z,7.10
2023-02-14T11:19:37.117Z,7.10
2023-02-14T11:22:05.042Z,7.10
2023-02-14T11:24:36.331Z,7.10
2023-02-14T11:27:12.319Z,7.20
2023-02-14T11:29:39.497Z,7.20
2023-02-14T11:32:15.775Z,7.20
2023-02-14T11:35:07.513Z,7.20
2023-02-14T11:37:43.102Z,7.20
2023-02-14T11:40:29.205Z,7.20
2023-02-14T11:43:13.374Z,7.20
2023-02-14T11:45:44.780Z,7.20
2023-02-14T11:48:37.157Z,7.20
2023-02-14T11:51:11.004Z,7.30
2023-02-14T11:53:56.061Z,7.40
2023-02-14T11:56:24.649Z,7.40
2023-02-14T11:59:05.916Z,7.40
2023-02-14T12:01:35.846Z,7.40
2023-02-14T12:04:07.590Z,7.30
2023-02-14T12:06:36.812Z,7.30
2023-02-14T12:09:22.540Z,7.40
2023-02-14T12:12:04.716Z,7.40
2023-02-14T12:14:36.209Z,7.40
2023-02-14T12:17:12.107Z,7.30
2023-02-14T12:19:54.794Z,7.30
2023-02-14T12:22:55.746Z,7.30
2023-02-14T12:25:31.899Z,7.40
2023-02-14T12:28:09.784Z,7.40
2023-02-14T12:30:36.820Z,7.40
2023-02-14T12:33:15.507Z,7.30
2023-02-14T12:36:08.045Z,7.30
2023-02-14T12:38:59.981Z,7.20
2023-02-14T12:41:29.756Z,7.30
2023-02-14T12:44:21.226Z,7.30
2023-02-14T12:47:02.641Z,7.30
2023-02-14T12:50:10.074Z,7.30
2023-02-14T12:53:10.502Z,7.40
2023-02-14T12:55:55.398Z,7.40
2023-02-14T12:58:40.702Z,7.30
2023-02-14T13:01:38.972Z,7.30
2023-02-14T13:04:35.907Z,7.40
2023-02-14T13:07:02.892Z,7.40
2023-02-14T13:09:53.230Z,7.40
2023-02-14T13:12:38.358Z,7.30
2023-02-14T13:15:33.158Z,7.30
2023-02-14T13:18:25.111Z,7.40
2023-02-14T13:20:58.679Z,7.40
2023-02-14T13:23:40.394Z,7.30
2023-02-14T13:26:15.434Z,7.30
2023-02-14T13:29:02.605Z,7.30
2023-02-14T13:31:30.990Z,7.40
2023-02-14T13:34:03.733Z,7.40
2023-02-14T13:36:32.904Z,7.40
2023-02-14T13:39:01.448Z,7.40
2023-02-14T13:41:29.157Z,7.50
2023-02-14T13:44:05.562Z,7.50
2023-02-14T13:46:32.603Z,7.50
2023-02-14T13:49:04.051Z,7.50
2023-02-14T13:51:45.718Z,7.40
2023-02-14T13:54:28.402Z,7.30
2023-02-14T13:56:55.706Z,7.30
2023-02-14T13:59:34.411Z,7.30
2023-02-14T14:02:29.960Z,7.30
2023-02-14T14:04:57.414Z,7.40
2023-02-14T14:07:31.108Z,7.30
2023-02-14T14:10:01.892Z,7.30
2023-02-14T14:12:28.942Z,7.30
2023-02-14T14:15:05.119Z,7.30
2023-02-14T14:17:50.317Z,7.20
2023-02-14T14:20:18.845Z,7.20
2023-02-14T14:22:58.902Z,7.20
2023-02-14T14:25:41.850Z,7.20
2023-02-14T14:28:20.353Z,7.20
2023-02-14T14:30:47.942Z,7.20
2023-02-14T14:33:33.023Z,7.20
2023-02-14T14:36:08.231Z,7.20
2023-02-14T14:38:47.477Z,7.20
2023-02-14T14:41:14.602Z,7.30
2023-02-14T14:43:42.855Z,7.30
2023-02-14T14:46:13.434Z,7.30
2023-02-14T14:48:51.215Z,7.30
2023-02-14T14:51:34.790Z,7.20
2023-02-14T14:54:27.790Z,7.30
2023-02-14T14:57:00.813Z,7.40
2023-02-14T14:59:36.130Z,7.40
2023-02-14T15:02:07.738Z,7.40
2023-02-14T15:04:35.953Z,7.40
2023-02-14T15:07:33.092Z,7.50
2023-02-14T15:10:01.544Z,7.50
2023-02-14T15:12:48.377Z,7.50
2023-02-14T15:15:18.452Z,7.40
2023-02-14T15:17:46.250Z,7.30
2023-02-14T15:20:22.078Z,7.20
2023-02-14T15:22:52.077Z,7.10
2023-02-14T15:25:26.152Z,7.00
2023-02-14T15:27:53.859Z,7.00
2023-02-14T15:30:26.905Z,6.90
2023-02-14T15:32:55.022Z,6.90
2023-02-14T15:35:29.273Z,6.80
2023-02-14T15:37:59.433Z,6.80
2023-02-14T15:40:31.346Z,6.80
2023-02-14T15:43:34.668Z,6.80
2023-02-14T15:46:29.228Z,6.70
2023-02-14T15:49:01.341Z,6.60
2023-02-14T15:51:36.607Z,6.50
2023-02-14T15:54:20.147Z,6.50
2023-02-14T15:56:51.696Z,6.60
2023-02-14T15:59:30.052Z,6.50
2023-02-14T16:02:28.563Z,6.50
2023-02-14T16:05:02.431Z,6.40
2023-02-14T16:07:32.176Z,6.40
2023-02-14T16:10:38.001Z,6.40
2023-02-14T16:13:29.977Z,6.40
2023-02-14T16:16:14.385Z,6.40
2023-02-14T16:18:43.997Z,6.40
2023-02-14T16:21:14.939Z,6.40
2023-02-14T16:23:44.914Z,6.40
2023-02-14T16:26:13.788Z,6.40
2023-02-14T16:28:43.249Z,6.30
2023-02-14T16:31:16.761Z,6.30
2023-02-14T16:33:44.337Z,6.30
2023-02-14T16:36:34.828Z,6.30
2023-02-14T16:39:05.179Z,6.30
2023-02-14T16:41:34.884Z,6.20
2023-02-14T16:44:03.216Z,6.20
2023-02-14T16:46:33.648Z,6.20
2023-02-14T16:49:01.316Z,6.20
2023-02-14T16:51:33.340Z,6.20
2023-02-14T16:54:05.606Z,6.20
2023-02-14T16:56:48.858Z,6.20
2023-02-14T16:59:16.553Z,6.20
2023-02-14T17:01:44.365Z,6.10
2023-02-14T17:04:11.852Z,6.10
2023-02-14T17:06:43.631Z,6.10
2023-02-14T17:09:14.116Z,6.10
2023-02-14T17:11:49.162Z,6.00
2023-02-14T17:14:23.151Z,6.00
2023-02-14T17:16:51.808Z,5.90
2023-02-14T17:19:19.270Z,5.90
2023-02-14T17:21:46.936Z,5.90
2023-02-14T17:24:14.561Z,5.90
2023-02-14T17:26:41.896Z,5.90
2023-02-14T17:29:09.734Z,5.90
2023-02-14T17:31:37.561Z,5.90
2023-02-14T17:34:05.088Z,6.00
2023-02-14T17:36:35.033Z,6.00
2023-02-14T17:39:03.962Z,5.90
2023-02-14T17:41:32.191Z,5.90
2023-02-14T17:44:02.804Z,5.80
2023-02-14T17:46:32.064Z,5.80
2023-02-14T17:49:03.144Z,5.80
2023-02-14T17:51:31.247Z,5.80
2023-02-14T17:53:59.169Z,5.90
2023-02-14T17:56:26.924Z,5.80
2023-02-14T17:58:55.641Z,5.80
2023-02-14T18:01:25.665Z,5.80
2023-02-14T18:03:55.069Z,5.80
2023-02-14T18:06:24.886Z,5.90
2023-02-14T18:09:01.948Z,5.80
2023-02-14T18:11:30.066Z,5.80
2023-02-14T18:14:00.176Z,5.80
2023-02-14T18:16:27.958Z,5.80
2023-02-14T18:18:55.874Z,5.80
2023-02-14T18:21:29.200Z,5.80
2023-02-14T18:24:01.464Z,5.80
2023-02-14T18:26:31.568Z,5.80
2023-02-14T18:28:59.941Z,5.80
2023-02-14T18:31:28.016Z,5.80
2023-02-14T18:33:57.521Z,5.80
2023-02-14T18:36:24.880Z,5.70
2023-02-14T18:38:53.145Z,5.70
2023-02-14T18:41:23.337Z,5.70
2023-02-14T18:43:55.707Z,5.70
2023-02-14T18:46:27.975Z,5.70
2023-02-14T18:48:58.080Z,5.80
2023-02-14T18:51:28.627Z,5.80
2023-02-14T18:53:58.517Z,5.80
2023-02-14T18:56:30.932Z,5.80
2023-02-14T18:59:01.533Z,5.80
2023-02-14T19:01:37.752Z,5.80
2023-02-14T19:04:09.304Z,5.70
2023-02-14T19:06:37.109Z,5.70
2023-02-14T19:09:08.851Z,5.70
2023-02-14T19:11:37.090Z,5.70
2023-02-14T19:14:10.655Z,5.70
2023-02-14T19:16:53.266Z,5.70
2023-02-14T19:19:23.526Z,5.70
2023-02-14T19:21:53.135Z,5.70
2023-02-14T19:24:23.939Z,5.60
2023-02-14T19:26:52.738Z,5.60
2023-02-14T19:29:21.545Z,5.70
2023-02-14T19:31:55.078Z,5.70
2023-02-14T19:34:28.206Z,5.70
2023-02-14T19:37:02.615Z,5.70
2023-02-14T19:39:31.271Z,5.70
2023-02-14T19:42:00.601Z,5.70
2023-02-14T19:44:30.033Z,5.70
2023-02-14T19:47:04.212Z,5.70
2023-02-14T19:49:36.171Z,5.70
2023-02-14T19:52:09.472Z,5.60
2023-02-14T19:54:42.062Z,5.60
2023-02-14T19:57:14.689Z,5.50
2023-02-14T19:59:44.203Z,5.50
2023-02-14T20:02:15.558Z,5.50
2023-02-14T20:04:45.345Z,5.50
2023-02-14T20:07:16.696Z,5.50
2023-02-14T20:09:45.090Z,5.50
2023-02-14T20:12:12.825Z,5.50
2023-02-14T20:14:50.918Z,5.50
2023-02-14T20:17:20.575Z,5.50
2023-02-14T20:19:50.262Z,5.50
2023-02-14T20:22:18.612Z,5.40
2023-02-14T20:24:49.620Z,5.40
2023-02-14T20:27:20.237Z,5.40
2023-02-14T20:29:48.506Z,5.40
2023-02-14T20:32:21.117Z,5.40
2023-02-14T20:34:51.228Z,5.40
2023-02-14T20:37:20.195Z,5.40
2023-02-14T20:39:48.502Z,5.40
2023-02-14T20:42:16.905Z,5.40
2023-02-14T20:44:46.801Z,5.40
2023-02-14T20:47:18.027Z,5.40
2023-02-14T20:49:50.224Z,5.40
2023-02-14T20:52:19.531Z,5.40
2023-02-14T20:54:48.812Z,5.40
2023-02-14T20:57:16.886Z,5.30
2023-02-14T20:59:46.064Z,5.30
2023-02-14T21:02:16.205Z,5.30
2023-02-14T21:04:45.977Z,5.30
2023-02-14T21:07:14.173Z,5.30
2023-02-14T21:09:42.335Z,5.30
2023-02-14T21:12:11.867Z,5.30
2023-02-14T21:14:44.205Z,5.30
2023-02-14T21:17:12.677Z,5.30
2023-02-14T21:19:44.042Z,5.30
2023-02-14T21:22:11.785Z,5.30
2023-02-14T21:24:40.564Z,5.30
2023-02-14T21:27:08.233Z,5.20
2023-02-14T21:29:36.340Z,5.30
2023-02-14T21:32:04.561Z,5.30
2023-02-14T21:34:34.288Z,5.30
2023-02-14T21:37:02.192Z,5.30
2023-02-14T21:39:31.860Z,5.30
2023-02-14T21:41:59.998Z,5.30
2023-02-14T21:44:45.855Z,5.30
2023-02-14T21:47:13.573Z,5.20
2023-02-14T21:49:59.851Z,5.20
2023-02-14T21:52:30.836Z,5.20
2023-02-14T21:54:58.625Z,5.10
2023-02-14T21:57:26.740Z,5.10
2023-02-14T21:59:55.155Z,5.10
2023-02-14T22:02:23.095Z,5.10
2023-02-14T22:04:50.689Z,5.10
2023-02-14T22:07:18.281Z,5.10
2023-02-14T22:09:45.736Z,5.10
2023-02-14T22:12:13.193Z,5.10
2023-02-14T22:14:41.584Z,5.10
2023-02-14T22:17:08.785Z,5.00
2023-02-14T22:19:37.075Z,5.00
2023-02-14T22:22:04.683Z,5.00
2023-02-14T22:24:31.735Z,5.00
2023-02-14T22:26:58.758Z,4.90
2023-02-14T22:29:26.280Z,4.90
2023-02-14T22:31:53.475Z,4.90
2023-02-14T22:34:20.635Z,4.90
2023-02-14T22:36:48.727Z,4.90
2023-02-14T22:39:17.198Z,4.90
2023-02-14T22:41:44.358Z,4.90
2023-02-14T22:44:12.417Z,4.90
2023-02-14T22:46:40.132Z,4.90
2023-02-14T22:49:08.130Z,4.90
2023-02-14T22:51:38.021Z,4.90
2023-02-14T22:54:15.013Z,4.80
2023-02-14T22:56:45.149Z,4.80
2023-02-14T22:59:18.412Z,4.80
2023-02-14T23:01:46.321Z,4.80
2023-02-14T23:04:15.401Z,4.80
2023-02-14T23:06:43.009Z,4.80
2023-02-14T23:09:11.770Z,4.80
2023-02-14T23:11:40.888Z,4.90
2023-02-14T23:14:27.417Z,4.90
2023-02-14T23:17:12.892Z,4.90
2023-02-14T23:19:58.418Z,4.90
2023-02-14T23:22:25.407Z,4.90
2023-02-14T23:24:54.587Z,4.80
2023-02-14T23:27:32.259Z,4.90
2023-02-14T23:30:00.242Z,4.90
2023-02-14T23:32:27.780Z,4.90
2023-02-14T23:34:54.948Z,4.90
2023-02-14T23:37:22.046Z,4.90
2023-02-14T23:39:49.602Z,4.90
2023-02-14T23:42:16.818Z,4.90
2023-02-14T23:44:45.181Z,4.90
2023-02-14T23:47:13.732Z,4.90
2023-02-14T23:49:42.084Z,4.90
2023-02-14T23:52:11.357Z,4.90
2023-02-14T23:54:39.316Z,4.90
2023-02-14T23:57:07.885Z,4.90
2023-02-14T23:59:35.093Z,4.80
